sensor_id;sensor_type;location;lat;lon;timestamp;pressure;altitude;pressure_sealevel;temperature;humidity
54600;BME280;40500;51.084;16.958;2022-12-18T00:01:36;101966.70;;;-5.45;100.00
54600;BME280;40500;51.084;16.958;2022-12-18T00:04:16;101972.10;;;-5.42;100.00
54600;BME280;40500;51.084;16.958;2022-12-18T00:06:47;101974.13;;;-5.37;100.00
54600;BME280;40500;51.084;16.958;2022-12-18T00:09:34;101971.95;;;-5.34;100.00
54600;BME280;40500;51.084;16.958;2022-12-18T00:12:07;101974.27;;;-5.31;100.00
54600;BME280;40500;51.084;16.958;2022-12-18T00:14:42;101973.23;;;-5.26;100.00
54600;BME280;40500;51.084;16.958;2022-12-18T00:17:13;101972.63;;;-5.25;100.00
54600;BME280;40500;51.084;16.958;2022-12-18T00:19:45;101969.84;;;-5.23;100.00
54600;BME280;40500;51.084;16.958;2022-12-18T00:22:24;101968.77;;;-5.22;100.00
54600;BME280;40500;51.084;16.958;2022-12-18T00:24:53;101972.06;;;-5.24;100.00
54600;BME280;40500;51.084;16.958;2022-12-18T00:27:24;101978.35;;;-5.24;100.00
54600;BME280;40500;51.084;16.958;2022-12-18T00:29:52;101982.23;;;-5.25;100.00
54600;BME280;40500;51.084;16.958;2022-12-18T00:32:21;101989.38;;;-5.25;100.00
54600;BME280;40500;51.084;16.958;2022-12-18T00:34:49;101993.36;;;-5.24;100.00
54600;BME280;40500;51.084;16.958;2022-12-18T00:37:17;101992.46;;;-5.22;100.00
54600;BME280;40500;51.084;16.958;2022-12-18T00:39:51;101994.27;;;-5.21;100.00
54600;BME280;40500;51.084;16.958;2022-12-18T00:42:20;101996.66;;;-5.21;100.00
54600;BME280;40500;51.084;16.958;2022-12-18T00:45:07;101998.59;;;-5.20;100.00
54600;BME280;40500;51.084;16.958;2022-12-18T00:47:41;102004.10;;;-5.17;100.00
54600;BME280;40500;51.084;16.958;2022-12-18T00:50:10;102010.00;;;-5.16;100.00
54600;BME280;40500;51.084;16.958;2022-12-18T00:52:39;102012.83;;;-5.17;100.00
54600;BME280;40500;51.084;16.958;2022-12-18T00:55:07;102013.11;;;-5.18;100.00
54600;BME280;40500;51.084;16.958;2022-12-18T00:57:36;102014.57;;;-5.17;100.00
54600;BME280;40500;51.084;16.958;2022-12-18T01:00:07;102023.06;;;-5.15;100.00
54600;BME280;40500;51.084;16.958;2022-12-18T01:02:36;102024.23;;;-5.15;100.00
54600;BME280;40500;51.084;16.958;2022-12-18T01:05:16;102030.61;;;-5.12;100.00
54600;BME280;40500;51.084;16.958;2022-12-18T01:07:45;102036.52;;;-5.11;100.00
54600;BME280;40500;51.084;16.958;2022-12-18T01:10:13;102035.43;;;-5.09;100.00
54600;BME280;40500;51.084;16.958;2022-12-18T01:12:41;102039.09;;;-5.08;100.00
54600;BME280;40500;51.084;16.958;2022-12-18T01:15:12;102046.20;;;-5.06;100.00
54600;BME280;40500;51.084;16.958;2022-12-18T01:17:43;102052.69;;;-5.04;100.00
54600;BME280;40500;51.084;16.958;2022-12-18T01:20:12;102060.32;;;-5.03;100.00
54600;BME280;40500;51.084;16.958;2022-12-18T01:22:41;102060.65;;;-5.03;100.00
54600;BME280;40500;51.084;16.958;2022-12-18T01:25:13;102063.02;;;-5.03;100.00
54600;BME280;40500;51.084;16.958;2022-12-18T01:27:43;102065.41;;;-5.03;100.00
54600;BME280;40500;51.084;16.958;2022-12-18T01:30:15;102062.02;;;-5.03;100.00
54600;BME280;40500;51.084;16.958;2022-12-18T01:32:44;102068.13;;;-5.01;100.00
54600;BME280;40500;51.084;16.958;2022-12-18T01:35:12;102071.15;;;-5.00;100.00
54600;BME280;40500;51.084;16.958;2022-12-18T01:37:41;102075.57;;;-4.98;100.00
54600;BME280;40500;51.084;16.958;2022-12-18T01:40:14;102068.85;;;-4.96;100.00
54600;BME280;40500;51.084;16.958;2022-12-18T01:42:42;102063.37;;;-4.96;100.00
54600;BME280;40500;51.084;16.958;2022-12-18T01:45:27;102065.47;;;-4.95;100.00
54600;BME280;40500;51.084;16.958;2022-12-18T01:47:57;102071.02;;;-4.94;100.00
54600;BME280;40500;51.084;16.958;2022-12-18T01:50:32;102068.08;;;-4.92;100.00
54600;BME280;40500;51.084;16.958;2022-12-18T01:53:12;102065.09;;;-4.91;100.00
54600;BME280;40500;51.084;16.958;2022-12-18T01:55:46;102070.09;;;-4.91;100.00
54600;BME280;40500;51.084;16.958;2022-12-18T01:58:16;102073.34;;;-4.91;100.00
54600;BME280;40500;51.084;16.958;2022-12-18T02:00:45;102073.77;;;-4.92;100.00
54600;BME280;40500;51.084;16.958;2022-12-18T02:03:14;102075.17;;;-4.93;100.00
54600;BME280;40500;51.084;16.958;2022-12-18T02:05:47;102074.44;;;-4.94;100.00
54600;BME280;40500;51.084;16.958;2022-12-18T02:08:20;102074.00;;;-4.93;100.00
54600;BME280;40500;51.084;16.958;2022-12-18T02:10:56;102076.93;;;-4.93;100.00
54600;BME280;40500;51.084;16.958;2022-12-18T02:13:39;102084.98;;;-4.95;100.00
54600;BME280;40500;51.084;16.958;2022-12-18T02:16:17;102082.39;;;-4.96;100.00
54600;BME280;40500;51.084;16.958;2022-12-18T02:18:57;102082.08;;;-4.93;100.00
54600;BME280;40500;51.084;16.958;2022-12-18T02:21:32;102079.77;;;-4.91;100.00
54600;BME280;40500;51.084;16.958;2022-12-18T02:24:17;102081.70;;;-4.91;100.00
54600;BME280;40500;51.084;16.958;2022-12-18T02:26:55;102093.41;;;-4.89;100.00
54600;BME280;40500;51.084;16.958;2022-12-18T02:29:28;102096.34;;;-4.89;100.00
54600;BME280;40500;51.084;16.958;2022-12-18T02:32:02;102092.75;;;-4.87;100.00
54600;BME280;40500;51.084;16.958;2022-12-18T02:34:35;102093.36;;;-4.86;100.00
54600;BME280;40500;51.084;16.958;2022-12-18T02:37:07;102096.21;;;-4.84;100.00
54600;BME280;40500;51.084;16.958;2022-12-18T02:39:39;102101.67;;;-4.82;100.00
54600;BME280;40500;51.084;16.958;2022-12-18T02:42:11;102105.55;;;-4.80;100.00
54600;BME280;40500;51.084;16.958;2022-12-18T02:44:47;102108.53;;;-4.79;100.00
54600;BME280;40500;51.084;16.958;2022-12-18T02:47:20;102110.77;;;-4.79;100.00
54600;BME280;40500;51.084;16.958;2022-12-18T02:49:59;102115.48;;;-4.80;100.00
54600;BME280;40500;51.084;16.958;2022-12-18T02:52:38;102106.48;;;-4.82;100.00
54600;BME280;40500;51.084;16.958;2022-12-18T02:55:16;102112.86;;;-4.81;100.00
54600;BME280;40500;51.084;16.958;2022-12-18T02:57:54;102110.71;;;-4.82;100.00
54600;BME280;40500;51.084;16.958;2022-12-18T03:00:30;102106.98;;;-4.84;100.00
54600;BME280;40500;51.084;16.958;2022-12-18T03:03:06;102104.08;;;-4.86;100.00
54600;BME280;40500;51.084;16.958;2022-12-18T03:05:41;102105.10;;;-4.89;100.00
54600;BME280;40500;51.084;16.958;2022-12-18T03:08:17;102106.20;;;-4.90;100.00
54600;BME280;40500;51.084;16.958;2022-12-18T03:10:53;102109.94;;;-4.90;100.00
54600;BME280;40500;51.084;16.958;2022-12-18T03:13:32;102113.02;;;-4.92;100.00
54600;BME280;40500;51.084;16.958;2022-12-18T03:16:07;102113.60;;;-4.89;100.00
54600;BME280;40500;51.084;16.958;2022-12-18T03:18:40;102115.73;;;-4.86;100.00
54600;BME280;40500;51.084;16.958;2022-12-18T03:21:12;102112.75;;;-4.82;100.00
54600;BME280;40500;51.084;16.958;2022-12-18T03:23:47;102115.17;;;-4.82;100.00
54600;BME280;40500;51.084;16.958;2022-12-18T03:26:20;102117.70;;;-4.80;100.00
54600;BME280;40500;51.084;16.958;2022-12-18T03:29:03;102120.10;;;-4.80;100.00
54600;BME280;40500;51.084;16.958;2022-12-18T03:31:41;102118.60;;;-4.84;100.00
54600;BME280;40500;51.084;16.958;2022-12-18T03:34:15;102117.27;;;-4.86;100.00
54600;BME280;40500;51.084;16.958;2022-12-18T03:36:46;102120.08;;;-4.87;100.00
54600;BME280;40500;51.084;16.958;2022-12-18T03:39:16;102123.48;;;-4.87;100.00
54600;BME280;40500;51.084;16.958;2022-12-18T03:41:55;102124.11;;;-4.84;100.00
54600;BME280;40500;51.084;16.958;2022-12-18T03:44:39;102125.16;;;-4.81;100.00
54600;BME280;40500;51.084;16.958;2022-12-18T03:47:15;102127.44;;;-4.78;100.00
54600;BME280;40500;51.084;16.958;2022-12-18T03:49:55;102132.47;;;-4.74;100.00
54600;BME280;40500;51.084;16.958;2022-12-18T03:52:49;102130.82;;;-4.73;100.00
54600;BME280;40500;51.084;16.958;2022-12-18T03:55:25;102141.36;;;-4.74;100.00
54600;BME280;40500;51.084;16.958;2022-12-18T03:58:00;102142.68;;;-4.77;100.00
54600;BME280;40500;51.084;16.958;2022-12-18T04:00:44;102148.17;;;-4.84;100.00
54600;BME280;40500;51.084;16.958;2022-12-18T04:03:17;102154.48;;;-4.87;100.00
54600;BME280;40500;51.084;16.958;2022-12-18T04:05:54;102164.55;;;-4.86;100.00
54600;BME280;40500;51.084;16.958;2022-12-18T04:08:33;102170.55;;;-4.89;100.00
54600;BME280;40500;51.084;16.958;2022-12-18T04:11:12;102165.57;;;-4.89;100.00
54600;BME280;40500;51.084;16.958;2022-12-18T04:13:44;102163.87;;;-4.89;100.00
54600;BME280;40500;51.084;16.958;2022-12-18T04:16:18;102160.73;;;-4.87;100.00
54600;BME280;40500;51.084;16.958;2022-12-18T04:18:46;102158.56;;;-4.86;100.00
54600;BME280;40500;51.084;16.958;2022-12-18T04:21:15;102168.39;;;-4.90;100.00
54600;BME280;40500;51.084;16.958;2022-12-18T04:23:42;102169.43;;;-4.94;100.00
54600;BME280;40500;51.084;16.958;2022-12-18T04:26:11;102168.48;;;-4.95;100.00
54600;BME280;40500;51.084;16.958;2022-12-18T04:28:49;102171.86;;;-4.96;100.00
54600;BME280;40500;51.084;16.958;2022-12-18T04:31:25;102175.29;;;-4.94;100.00
54600;BME280;40500;51.084;16.958;2022-12-18T04:33:53;102171.88;;;-4.94;100.00
54600;BME280;40500;51.084;16.958;2022-12-18T04:36:23;102173.39;;;-4.94;100.00
54600;BME280;40500;51.084;16.958;2022-12-18T04:38:50;102170.61;;;-4.97;100.00
54600;BME280;40500;51.084;16.958;2022-12-18T04:41:18;102174.23;;;-4.96;100.00
54600;BME280;40500;51.084;16.958;2022-12-18T04:43:49;102176.87;;;-4.95;100.00
54600;BME280;40500;51.084;16.958;2022-12-18T04:46:18;102178.89;;;-4.96;100.00
54600;BME280;40500;51.084;16.958;2022-12-18T04:48:47;102187.85;;;-4.97;100.00
54600;BME280;40500;51.084;16.958;2022-12-18T04:51:18;102186.10;;;-4.98;100.00
54600;BME280;40500;51.084;16.958;2022-12-18T04:53:53;102191.65;;;-4.96;100.00
54600;BME280;40500;51.084;16.958;2022-12-18T04:56:25;102194.76;;;-4.94;100.00
54600;BME280;40500;51.084;16.958;2022-12-18T04:58:53;102198.70;;;-4.93;100.00
54600;BME280;40500;51.084;16.958;2022-12-18T05:01:21;102198.91;;;-4.93;100.00
54600;BME280;40500;51.084;16.958;2022-12-18T05:03:50;102202.70;;;-4.92;100.00
54600;BME280;40500;51.084;16.958;2022-12-18T05:06:20;102209.48;;;-4.91;100.00
54600;BME280;40500;51.084;16.958;2022-12-18T05:08:48;102212.23;;;-4.93;100.00
54600;BME280;40500;51.084;16.958;2022-12-18T05:11:30;102211.00;;;-4.98;100.00
54600;BME280;40500;51.084;16.958;2022-12-18T05:13:57;102208.91;;;-5.01;100.00
54600;BME280;40500;51.084;16.958;2022-12-18T05:16:26;102208.99;;;-5.02;100.00
54600;BME280;40500;51.084;16.958;2022-12-18T05:19:23;102208.48;;;-5.02;100.00
54600;BME280;40500;51.084;16.958;2022-12-18T05:21:51;102217.98;;;-5.01;100.00
54600;BME280;40500;51.084;16.958;2022-12-18T05:24:21;102225.40;;;-5.00;100.00
54600;BME280;40500;51.084;16.958;2022-12-18T05:26:51;102228.48;;;-5.00;100.00
54600;BME280;40500;51.084;16.958;2022-12-18T05:29:20;102229.19;;;-5.00;100.00
54600;BME280;40500;51.084;16.958;2022-12-18T05:31:48;102226.02;;;-5.01;100.00
54600;BME280;40500;51.084;16.958;2022-12-18T05:34:17;102230.27;;;-5.03;100.00
54600;BME280;40500;51.084;16.958;2022-12-18T05:36:50;102235.02;;;-5.06;100.00
54600;BME280;40500;51.084;16.958;2022-12-18T05:39:39;102243.09;;;-5.07;100.00
54600;BME280;40500;51.084;16.958;2022-12-18T05:42:08;102246.22;;;-5.09;100.00
54600;BME280;40500;51.084;16.958;2022-12-18T05:44:35;102247.39;;;-5.11;100.00
54600;BME280;40500;51.084;16.958;2022-12-18T05:47:03;102248.70;;;-5.12;100.00
54600;BME280;40500;51.084;16.958;2022-12-18T05:49:31;102246.58;;;-5.11;100.00
54600;BME280;40500;51.084;16.958;2022-12-18T05:51:59;102250.70;;;-5.10;100.00
54600;BME280;40500;51.084;16.958;2022-12-18T05:54:28;102248.88;;;-5.10;100.00
54600;BME280;40500;51.084;16.958;2022-12-18T05:57:02;102256.67;;;-5.11;100.00
54600;BME280;40500;51.084;16.958;2022-12-18T05:59:31;102262.71;;;-5.14;100.00
54600;BME280;40500;51.084;16.958;2022-12-18T06:01:59;102261.77;;;-5.20;100.00
54600;BME280;40500;51.084;16.958;2022-12-18T06:04:28;102260.90;;;-5.25;100.00
54600;BME280;40500;51.084;16.958;2022-12-18T06:06:57;102261.67;;;-5.26;100.00
54600;BME280;40500;51.084;16.958;2022-12-18T06:09:28;102262.04;;;-5.26;100.00
54600;BME280;40500;51.084;16.958;2022-12-18T06:12:00;102265.63;;;-5.25;100.00
54600;BME280;40500;51.084;16.958;2022-12-18T06:14:36;102268.48;;;-5.26;100.00
54600;BME280;40500;51.084;16.958;2022-12-18T06:17:04;102273.14;;;-5.25;100.00
54600;BME280;40500;51.084;16.958;2022-12-18T06:19:31;102280.68;;;-5.25;100.00
54600;BME280;40500;51.084;16.958;2022-12-18T06:21:59;102282.16;;;-5.28;100.00
54600;BME280;40500;51.084;16.958;2022-12-18T06:24:27;102280.14;;;-5.32;100.00
54600;BME280;40500;51.084;16.958;2022-12-18T06:27:02;102282.52;;;-5.36;100.00
54600;BME280;40500;51.084;16.958;2022-12-18T06:29:32;102287.89;;;-5.40;100.00
54600;BME280;40500;51.084;16.958;2022-12-18T06:32:01;102288.16;;;-5.41;100.00
54600;BME280;40500;51.084;16.958;2022-12-18T06:34:29;102297.14;;;-5.39;100.00
54600;BME280;40500;51.084;16.958;2022-12-18T06:36:59;102300.95;;;-5.39;100.00
54600;BME280;40500;51.084;16.958;2022-12-18T06:39:33;102308.63;;;-5.37;100.00
54600;BME280;40500;51.084;16.958;2022-12-18T06:42:04;102314.48;;;-5.36;100.00
54600;BME280;40500;51.084;16.958;2022-12-18T06:44:33;102308.77;;;-5.35;100.00
54600;BME280;40500;51.084;16.958;2022-12-18T06:47:02;102310.58;;;-5.31;100.00
54600;BME280;40500;51.084;16.958;2022-12-18T06:49:47;102314.86;;;-5.29;100.00
54600;BME280;40500;51.084;16.958;2022-12-18T06:52:36;102316.55;;;-5.27;100.00
54600;BME280;40500;51.084;16.958;2022-12-18T06:55:10;102317.56;;;-5.27;100.00
54600;BME280;40500;51.084;16.958;2022-12-18T06:57:45;102319.45;;;-5.25;100.00
54600;BME280;40500;51.084;16.958;2022-12-18T07:00:16;102321.40;;;-5.24;100.00
54600;BME280;40500;51.084;16.958;2022-12-18T07:02:54;102326.06;;;-5.23;100.00
54600;BME280;40500;51.084;16.958;2022-12-18T07:05:26;102324.64;;;-5.24;100.00
54600;BME280;40500;51.084;16.958;2022-12-18T07:08:04;102326.28;;;-5.25;100.00
54600;BME280;40500;51.084;16.958;2022-12-18T07:10:32;102332.72;;;-5.28;100.00
54600;BME280;40500;51.084;16.958;2022-12-18T07:13:00;102337.66;;;-5.30;100.00
54600;BME280;40500;51.084;16.958;2022-12-18T07:15:28;102338.52;;;-5.30;100.00
54600;BME280;40500;51.084;16.958;2022-12-18T07:17:59;102343.60;;;-5.33;100.00
54600;BME280;40500;51.084;16.958;2022-12-18T07:20:29;102347.38;;;-5.34;100.00
54600;BME280;40500;51.084;16.958;2022-12-18T07:23:03;102348.48;;;-5.33;100.00
54600;BME280;40500;51.084;16.958;2022-12-18T07:25:34;102353.16;;;-5.30;100.00
54600;BME280;40500;51.084;16.958;2022-12-18T07:28:02;102354.10;;;-5.27;100.00
54600;BME280;40500;51.084;16.958;2022-12-18T07:30:30;102352.48;;;-5.24;100.00
54600;BME280;40500;51.084;16.958;2022-12-18T07:32:58;102356.45;;;-5.24;100.00
54600;BME280;40500;51.084;16.958;2022-12-18T07:35:25;102361.26;;;-5.21;100.00
54600;BME280;40500;51.084;16.958;2022-12-18T07:37:53;102371.51;;;-5.19;100.00
54600;BME280;40500;51.084;16.958;2022-12-18T07:40:21;102373.50;;;-5.18;100.00
54600;BME280;40500;51.084;16.958;2022-12-18T07:42:49;102371.77;;;-5.13;100.00
54600;BME280;40500;51.084;16.958;2022-12-18T07:45:19;102378.58;;;-5.09;100.00
54600;BME280;40500;51.084;16.958;2022-12-18T07:47:47;102375.58;;;-5.10;100.00
54600;BME280;40500;51.084;16.958;2022-12-18T07:50:15;102378.27;;;-5.11;100.00
54600;BME280;40500;51.084;16.958;2022-12-18T07:52:43;102377.02;;;-5.09;100.00
54600;BME280;40500;51.084;16.958;2022-12-18T07:55:11;102375.44;;;-5.08;100.00
54600;BME280;40500;51.084;16.958;2022-12-18T07:57:40;102376.05;;;-5.06;100.00
54600;BME280;40500;51.084;16.958;2022-12-18T08:00:19;102376.91;;;-5.04;100.00
54600;BME280;40500;51.084;16.958;2022-12-18T08:02:48;102382.05;;;-5.02;100.00
54600;BME280;40500;51.084;16.958;2022-12-18T08:05:16;102387.99;;;-4.98;100.00
54600;BME280;40500;51.084;16.958;2022-12-18T08:07:44;102386.64;;;-4.92;100.00
54600;BME280;40500;51.084;16.958;2022-12-18T08:10:12;102387.45;;;-4.85;100.00
54600;BME280;40500;51.084;16.958;2022-12-18T08:12:40;102389.81;;;-4.84;100.00
54600;BME280;40500;51.084;16.958;2022-12-18T08:15:08;102399.60;;;-4.81;100.00
54600;BME280;40500;51.084;16.958;2022-12-18T08:17:36;102399.10;;;-4.79;100.00
54600;BME280;40500;51.084;16.958;2022-12-18T08:20:10;102398.63;;;-4.76;100.00
54600;BME280;40500;51.084;16.958;2022-12-18T08:22:39;102407.42;;;-4.74;100.00
54600;BME280;40500;51.084;16.958;2022-12-18T08:25:08;102409.54;;;-4.73;100.00
54600;BME280;40500;51.084;16.958;2022-12-18T08:27:36;102407.40;;;-4.77;100.00
54600;BME280;40500;51.084;16.958;2022-12-18T08:30:08;102406.67;;;-4.75;100.00
54600;BME280;40500;51.084;16.958;2022-12-18T08:32:36;102410.23;;;-4.71;100.00
54600;BME280;40500;51.084;16.958;2022-12-18T08:35:05;102414.88;;;-4.71;100.00
54600;BME280;40500;51.084;16.958;2022-12-18T08:37:33;102422.86;;;-4.67;100.00
54600;BME280;40500;51.084;16.958;2022-12-18T08:40:00;102423.30;;;-4.64;100.00
54600;BME280;40500;51.084;16.958;2022-12-18T08:42:28;102423.84;;;-4.59;100.00
54600;BME280;40500;51.084;16.958;2022-12-18T08:45:15;102419.42;;;-4.54;100.00
54600;BME280;40500;51.084;16.958;2022-12-18T08:47:44;102418.15;;;-4.51;100.00
54600;BME280;40500;51.084;16.958;2022-12-18T08:50:13;102422.40;;;-4.47;100.00
54600;BME280;40500;51.084;16.958;2022-12-18T08:52:41;102430.26;;;-4.43;100.00
54600;BME280;40500;51.084;16.958;2022-12-18T08:55:10;102432.66;;;-4.38;100.00
54600;BME280;40500;51.084;16.958;2022-12-18T08:57:40;102432.64;;;-4.31;100.00
54600;BME280;40500;51.084;16.958;2022-12-18T09:00:11;102434.91;;;-4.26;100.00
54600;BME280;40500;51.084;16.958;2022-12-18T09:02:41;102438.02;;;-4.22;100.00
54600;BME280;40500;51.084;16.958;2022-12-18T09:05:09;102433.67;;;-4.18;100.00
54600;BME280;40500;51.084;16.958;2022-12-18T09:07:37;102428.77;;;-4.15;100.00
54600;BME280;40500;51.084;16.958;2022-12-18T09:10:08;102423.05;;;-4.14;100.00
54600;BME280;40500;51.084;16.958;2022-12-18T09:12:36;102416.93;;;-4.13;100.00
54600;BME280;40500;51.084;16.958;2022-12-18T09:15:06;102408.84;;;-4.16;100.00
54600;BME280;40500;51.084;16.958;2022-12-18T09:17:34;102399.70;;;-4.19;100.00
54600;BME280;40500;51.084;16.958;2022-12-18T09:20:02;102395.99;;;-4.25;100.00
54600;BME280;40500;51.084;16.958;2022-12-18T09:22:30;102397.08;;;-4.29;100.00
54600;BME280;40500;51.084;16.958;2022-12-18T09:24:59;102394.39;;;-4.28;100.00
54600;BME280;40500;51.084;16.958;2022-12-18T09:27:26;102390.27;;;-4.26;100.00
54600;BME280;40500;51.084;16.958;2022-12-18T09:29:54;102381.34;;;-4.22;100.00
54600;BME280;40500;51.084;16.958;2022-12-18T09:32:23;102383.29;;;-4.22;100.00
54600;BME280;40500;51.084;16.958;2022-12-18T09:34:51;102377.55;;;-4.23;100.00
54600;BME280;40500;51.084;16.958;2022-12-18T09:37:19;102375.09;;;-4.19;100.00
54600;BME280;40500;51.084;16.958;2022-12-18T09:39:48;102369.96;;;-4.12;100.00
54600;BME280;40500;51.084;16.958;2022-12-18T09:42:25;102362.69;;;-4.09;100.00
54600;BME280;40500;51.084;16.958;2022-12-18T09:44:56;102367.33;;;-4.08;100.00
54600;BME280;40500;51.084;16.958;2022-12-18T09:47:27;102363.88;;;-4.07;100.00
54600;BME280;40500;51.084;16.958;2022-12-18T09:50:04;102364.14;;;-3.99;100.00
54600;BME280;40500;51.084;16.958;2022-12-18T09:52:35;102365.86;;;-3.91;100.00
54600;BME280;40500;51.084;16.958;2022-12-18T09:55:14;102365.78;;;-3.90;100.00
54600;BME280;40500;51.084;16.958;2022-12-18T09:57:51;102368.44;;;-3.89;100.00
54600;BME280;40500;51.084;16.958;2022-12-18T10:00:22;102365.02;;;-3.89;100.00
54600;BME280;40500;51.084;16.958;2022-12-18T10:02:53;102361.50;;;-3.85;100.00
54600;BME280;40500;51.084;16.958;2022-12-18T10:05:31;102364.50;;;-3.91;100.00
54600;BME280;40500;51.084;16.958;2022-12-18T10:08:13;102371.60;;;-4.00;100.00
54600;BME280;40500;51.084;16.958;2022-12-18T10:10:49;102374.29;;;-4.00;100.00
54600;BME280;40500;51.084;16.958;2022-12-18T10:13:24;102373.08;;;-4.01;100.00
54600;BME280;40500;51.084;16.958;2022-12-18T10:16:08;102372.83;;;-3.99;100.00
54600;BME280;40500;51.084;16.958;2022-12-18T10:18:54;102381.01;;;-3.98;100.00
54600;BME280;40500;51.084;16.958;2022-12-18T10:21:31;102388.58;;;-3.92;100.00
54600;BME280;40500;51.084;16.958;2022-12-18T10:24:08;102392.50;;;-3.94;100.00
54600;BME280;40500;51.084;16.958;2022-12-18T10:26:41;102389.49;;;-4.01;100.00
54600;BME280;40500;51.084;16.958;2022-12-18T10:29:13;102387.73;;;-4.01;100.00
54600;BME280;40500;51.084;16.958;2022-12-18T10:31:44;102387.04;;;-3.94;100.00
54600;BME280;40500;51.084;16.958;2022-12-18T10:34:12;102387.59;;;-3.89;100.00
54600;BME280;40500;51.084;16.958;2022-12-18T10:36:41;102387.68;;;-3.88;100.00
54600;BME280;40500;51.084;16.958;2022-12-18T10:39:18;102381.36;;;-3.97;100.00
54600;BME280;40500;51.084;16.958;2022-12-18T10:41:46;102383.83;;;-4.01;100.00
54600;BME280;40500;51.084;16.958;2022-12-18T10:44:19;102380.58;;;-3.99;100.00
54600;BME280;40500;51.084;16.958;2022-12-18T10:46:49;102376.73;;;-4.04;100.00
54600;BME280;40500;51.084;16.958;2022-12-18T10:49:31;102371.69;;;-4.07;100.00
54600;BME280;40500;51.084;16.958;2022-12-18T10:52:20;102373.52;;;-4.01;100.00
54600;BME280;40500;51.084;16.958;2022-12-18T10:54:50;102376.66;;;-4.03;100.00
54600;BME280;40500;51.084;16.958;2022-12-18T10:57:33;102382.13;;;-4.07;100.00
54600;BME280;40500;51.084;16.958;2022-12-18T11:00:22;102377.93;;;-4.06;100.00
54600;BME280;40500;51.084;16.958;2022-12-18T11:02:51;102384.95;;;-3.97;100.00
54600;BME280;40500;51.084;16.958;2022-12-18T11:05:29;102381.39;;;-3.99;100.00
54600;BME280;40500;51.084;16.958;2022-12-18T11:07:58;102388.83;;;-3.98;100.00
54600;BME280;40500;51.084;16.958;2022-12-18T11:10:31;102393.70;;;-3.99;100.00
54600;BME280;40500;51.084;16.958;2022-12-18T11:13:12;102392.77;;;-4.05;100.00
54600;BME280;40500;51.084;16.958;2022-12-18T11:15:43;102397.22;;;-4.05;100.00
54600;BME280;40500;51.084;16.958;2022-12-18T11:18:20;102406.94;;;-4.03;100.00
54600;BME280;40500;51.084;16.958;2022-12-18T11:20:55;102412.34;;;-4.02;100.00
54600;BME280;40500;51.084;16.958;2022-12-18T11:23:26;102419.49;;;-4.00;100.00
54600;BME280;40500;51.084;16.958;2022-12-18T11:25:57;102421.09;;;-3.97;100.00
54600;BME280;40500;51.084;16.958;2022-12-18T11:28:35;102424.43;;;-3.95;100.00
54600;BME280;40500;51.084;16.958;2022-12-18T11:31:20;102422.39;;;-3.95;100.00
54600;BME280;40500;51.084;16.958;2022-12-18T11:33:53;102418.71;;;-3.99;100.00
54600;BME280;40500;51.084;16.958;2022-12-18T11:36:45;102411.34;;;-4.04;100.00
54600;BME280;40500;51.084;16.958;2022-12-18T11:39:17;102409.83;;;-4.03;100.00
54600;BME280;40500;51.084;16.958;2022-12-18T11:41:53;102399.12;;;-4.00;100.00
54600;BME280;40500;51.084;16.958;2022-12-18T11:44:46;102389.14;;;-3.93;100.00
54600;BME280;40500;51.084;16.958;2022-12-18T11:47:18;102384.02;;;-3.87;100.00
54600;BME280;40500;51.084;16.958;2022-12-18T11:49:49;102377.64;;;-3.89;100.00
54600;BME280;40500;51.084;16.958;2022-12-18T11:52:22;102383.05;;;-3.88;100.00
54600;BME280;40500;51.084;16.958;2022-12-18T11:54:52;102376.95;;;-3.85;100.00
54600;BME280;40500;51.084;16.958;2022-12-18T11:57:31;102372.59;;;-3.86;100.00
54600;BME280;40500;51.084;16.958;2022-12-18T12:00:09;102373.50;;;-3.90;100.00
54600;BME280;40500;51.084;16.958;2022-12-18T12:03:18;102374.55;;;-3.97;100.00
54600;BME280;40500;51.084;16.958;2022-12-18T12:05:58;102373.98;;;-4.06;100.00
54600;BME280;40500;51.084;16.958;2022-12-18T12:08:37;102372.91;;;-4.05;100.00
54600;BME280;40500;51.084;16.958;2022-12-18T12:11:14;102377.48;;;-4.03;100.00
54600;BME280;40500;51.084;16.958;2022-12-18T12:13:55;102369.39;;;-3.97;100.00
54600;BME280;40500;51.084;16.958;2022-12-18T12:16:31;102371.51;;;-3.87;100.00
54600;BME280;40500;51.084;16.958;2022-12-18T12:19:15;102372.46;;;-3.85;100.00
54600;BME280;40500;51.084;16.958;2022-12-18T12:21:55;102367.84;;;-3.90;100.00
54600;BME280;40500;51.084;16.958;2022-12-18T12:24:36;102368.66;;;-3.93;100.00
54600;BME280;40500;51.084;16.958;2022-12-18T12:27:14;102369.20;;;-3.88;100.00
54600;BME280;40500;51.084;16.958;2022-12-18T12:29:50;102368.40;;;-3.91;100.00
54600;BME280;40500;51.084;16.958;2022-12-18T12:32:38;102370.88;;;-3.95;100.00
54600;BME280;40500;51.084;16.958;2022-12-18T12:35:22;102364.79;;;-3.92;100.00
54600;BME280;40500;51.084;16.958;2022-12-18T12:38:02;102359.91;;;-3.91;100.00
54600;BME280;40500;51.084;16.958;2022-12-18T12:40:35;102361.27;;;-3.91;100.00
54600;BME280;40500;51.084;16.958;2022-12-18T12:43:32;102361.25;;;-3.96;100.00
54600;BME280;40500;51.084;16.958;2022-12-18T12:46:10;102362.61;;;-3.99;100.00
54600;BME280;40500;51.084;16.958;2022-12-18T12:48:43;102358.13;;;-4.02;100.00
54600;BME280;40500;51.084;16.958;2022-12-18T12:51:17;102359.78;;;-4.02;100.00
54600;BME280;40500;51.084;16.958;2022-12-18T12:53:47;102357.05;;;-4.02;100.00
54600;BME280;40500;51.084;16.958;2022-12-18T12:56:17;102367.65;;;-4.07;100.00
54600;BME280;40500;51.084;16.958;2022-12-18T12:58:57;102368.56;;;-4.10;100.00
54600;BME280;40500;51.084;16.958;2022-12-18T13:01:34;102367.52;;;-4.13;100.00